Time;durP1;ratioP1;P1;durP2;ratioP2;P2;SDS_P1;SDS_P2;PMS_P1;PMS_P2;Temp;Humidity;BMP_temperature;BMP_pressure;BME280_temperature;BME280_humidity;BME280_pressure;Samples;Min_cycle;Max_cycle;Signal;HPM_P1;HPM_P2
2023/07/06 00:00:21;;;;;;;12.15;4.53;;;12.90;99.90;;;;;;4990671;28;20057;-77
2023/07/06 00:03:07;;;;;;;19.55;5.80;;;12.90;99.90;;;;;;4990244;28;20507;-76
2023/07/06 00:05:54;;;;;;;19.27;5.85;;;12.90;99.90;;;;;;4989948;28;20105;-77
2023/07/06 00:08:40;;;;;;;10.00;4.63;;;12.80;99.90;;;;;;4990195;28;20644;-77
2023/07/06 00:11:33;;;;;;;17.80;5.95;;;12.80;99.90;;;;;;4989011;28;20057;-77
2023/07/06 00:14:23;;;;;;;11.43;4.93;;;12.80;99.90;;;;;;4990451;28;20057;-77
2023/07/06 00:17:12;;;;;;;12.18;6.65;;;12.70;99.90;;;;;;4975316;28;20058;-77
2023/07/06 00:19:59;;;;;;;12.80;5.05;;;12.80;99.90;;;;;;4991995;28;20100;-80
2023/07/06 00:22:45;;;;;;;13.68;5.25;;;12.80;99.90;;;;;;4989264;28;20058;-77
2023/07/06 00:25:33;;;;;;;11.02;4.90;;;12.80;99.90;;;;;;4990138;28;20578;-77
2023/07/06 00:28:24;;;;;;;9.77;5.78;;;12.80;99.90;;;;;;4990033;28;20050;-76
2023/07/06 00:31:20;;;;;;;16.45;6.07;;;12.80;99.90;;;;;;4990124;28;20042;-77
2023/07/06 00:34:08;;;;;;;11.52;5.70;;;12.80;99.90;;;;;;4990141;28;20055;-78
2023/07/06 00:36:54;;;;;;;13.30;5.70;;;12.80;99.90;;;;;;4989868;28;20052;-77
2023/07/06 00:39:41;;;;;;;12.73;5.63;;;12.70;99.90;;;;;;4987847;28;20145;-78
2023/07/06 00:42:28;;;;;;;15.32;5.78;;;12.70;99.90;;;;;;4990251;28;20058;-79
2023/07/06 00:45:15;;;;;;;12.57;5.88;;;12.70;99.90;;;;;;4989223;28;20054;-79
2023/07/06 00:48:02;;;;;;;9.93;5.35;;;12.60;99.90;;;;;;4989021;28;20058;-79
2023/07/06 00:50:58;;;;;;;11.63;5.90;;;12.60;99.90;;;;;;4990407;28;20124;-79
2023/07/06 00:53:48;;;;;;;11.77;5.97;;;12.60;99.90;;;;;;4975185;28;20823;-79
2023/07/06 00:56:40;;;;;;;10.00;5.35;;;12.60;99.90;;;;;;4989251;28;20058;-76
2023/07/06 00:59:29;;;;;;;12.13;6.28;;;12.60;99.90;;;;;;4990194;28;20177;-79
2023/07/06 01:02:17;;;;;;;13.45;5.80;;;12.60;99.90;;;;;;4989821;28;20061;-79
2023/07/06 01:05:05;;;;;;;13.48;6.47;;;12.60;99.90;;;;;;4990086;28;20100;-81
2023/07/06 01:07:54;;;;;;;12.40;6.30;;;12.60;99.90;;;;;;4989507;28;20100;-79
2023/07/06 01:10:41;;;;;;;15.95;5.68;;;12.50;99.90;;;;;;4989407;28;20054;-79
2023/07/06 01:13:29;;;;;;;11.95;5.93;;;12.60;99.90;;;;;;4988643;28;20054;-79
2023/07/06 01:16:21;;;;;;;14.52;6.32;;;12.50;99.90;;;;;;4990092;28;20055;-80
2023/07/06 01:19:23;;;;;;;16.40;6.43;;;12.60;99.90;;;;;;4988407;28;20541;-78
2023/07/06 01:22:49;;;;;;;14.45;6.53;;;12.60;99.90;;;;;;4990036;28;20124;-77
2023/07/06 01:26:07;;;;;;;14.65;7.07;;;12.60;99.90;;;;;;4973477;28;20077;-78
2023/07/06 01:29:23;;;;;;;10.40;6.30;;;12.60;99.90;;;;;;4988966;28;20517;-79
2023/07/06 01:32:21;;;;;;;10.13;6.18;;;12.60;99.90;;;;;;4990546;28;20050;-78
2023/07/06 01:35:16;;;;;;;13.55;6.47;;;12.60;99.90;;;;;;4989977;28;20047;-76
2023/07/06 01:38:03;;;;;;;12.70;6.82;;;12.60;99.90;;;;;;4989580;28;20491;-76
2023/07/06 01:40:49;;;;;;;9.38;6.00;;;12.60;99.90;;;;;;4991262;28;20361;-78
2023/07/06 01:43:36;;;;;;;17.60;7.72;;;12.60;99.90;;;;;;4991683;28;20135;-78
2023/07/06 01:46:23;;;;;;;13.35;6.38;;;12.60;99.90;;;;;;4993182;28;20046;-78
2023/07/06 01:49:10;;;;;;;13.90;6.78;;;12.60;99.90;;;;;;4993094;28;20490;-76
2023/07/06 01:52:07;;;;;;;11.10;7.07;;;12.60;99.90;;;;;;4992638;28;20046;-79
2023/07/06 01:55:08;;;;;;;11.73;6.55;;;12.60;99.90;;;;;;4992615;28;20574;-77
2023/07/06 01:58:23;;;;;;;11.68;6.72;;;12.60;99.90;;;;;;4991451;28;20058;-78
2023/07/06 02:01:15;;;;;;;21.50;7.60;;;12.60;99.90;;;;;;4978138;28;20062;-78
2023/07/06 02:04:06;;;;;;;18.15;7.80;;;12.50;99.90;;;;;;4978041;28;20799;-77
2023/07/06 02:06:53;;;;;;;15.73;7.57;;;12.50;99.90;;;;;;4991286;28;20554;-79
2023/07/06 02:09:43;;;;;;;11.95;7.18;;;12.50;99.90;;;;;;4992904;28;20078;-76
2023/07/06 02:12:31;;;;;;;15.80;7.47;;;12.60;99.90;;;;;;4991420;28;20058;-76
2023/07/06 02:15:20;;;;;;;12.23;6.75;;;12.60;99.90;;;;;;4992921;28;20085;-77
2023/07/06 02:18:07;;;;;;;12.48;7.22;;;12.60;99.90;;;;;;4992990;28;20061;-77
2023/07/06 02:20:54;;;;;;;14.45;7.32;;;12.60;99.90;;;;;;4991747;28;20494;-77
2023/07/06 02:23:40;;;;;;;17.40;7.68;;;12.60;99.90;;;;;;4991301;28;20050;-76
2023/07/06 02:26:26;;;;;;;12.52;7.25;;;12.60;99.90;;;;;;4991993;28;20061;-77
2023/07/06 02:29:14;;;;;;;12.55;6.70;;;12.60;99.90;;;;;;4992489;28;20078;-77
2023/07/06 02:32:00;;;;;;;16.60;7.25;;;12.70;99.90;;;;;;4992674;28;20080;-76
2023/07/06 02:34:48;;;;;;;16.95;6.65;;;12.70;99.90;;;;;;4991170;28;20042;-77
2023/07/06 02:37:34;;;;;;;13.48;6.97;;;12.70;99.90;;;;;;4991757;28;20119;-76
2023/07/06 02:40:20;;;;;;;12.65;6.93;;;12.70;99.90;;;;;;4991305;28;20046;-76
2023/07/06 02:43:07;;;;;;;12.65;7.07;;;12.70;99.90;;;;;;4991901;28;20058;-77
2023/07/06 02:45:53;;;;;;;15.23;7.82;;;12.70;99.90;;;;;;4990509;28;20054;-77
2023/07/06 02:48:39;;;;;;;11.82;6.63;;;12.70;99.90;;;;;;4992248;28;20050;-78
2023/07/06 02:51:28;;;;;;;15.60;6.65;;;12.80;99.90;;;;;;4992032;28;20137;-75
2023/07/06 02:54:15;;;;;;;13.00;7.00;;;12.70;99.90;;;;;;4991806;28;20061;-80
2023/07/06 02:57:01;;;;;;;12.38;6.93;;;12.70;99.90;;;;;;4991588;28;20514;-76
2023/07/06 02:59:47;;;;;;;12.63;6.03;;;12.70;99.90;;;;;;4990733;28;20054;-77
2023/07/06 03:02:34;;;;;;;12.35;7.53;;;12.70;99.90;;;;;;4991479;28;20042;-76
2023/07/06 03:05:23;;;;;;;13.13;7.28;;;12.70;99.90;;;;;;4991733;28;20050;-77
2023/07/06 03:08:09;;;;;;;11.68;6.50;;;12.70;99.90;;;;;;4991911;28;20054;-78
2023/07/06 03:10:55;;;;;;;13.20;6.32;;;12.70;99.90;;;;;;4991241;28;20109;-77
2023/07/06 03:13:42;;;;;;;12.82;7.53;;;12.80;99.90;;;;;;4991067;28;20141;-77
2023/07/06 03:16:29;;;;;;;14.77;6.30;;;12.70;99.90;;;;;;4990211;28;20137;-76
2023/07/06 03:19:16;;;;;;;16.17;6.97;;;12.70;99.90;;;;;;4991302;28;20047;-78
2023/07/06 03:22:02;;;;;;;12.15;7.00;;;12.70;99.90;;;;;;4990940;28;20053;-78
2023/07/06 03:24:48;;;;;;;12.52;6.07;;;12.70;99.90;;;;;;4991528;28;20050;-79
2023/07/06 03:27:36;;;;;;;9.43;5.78;;;12.70;99.90;;;;;;4991511;28;20522;-79
2023/07/06 03:30:26;;;;;;;13.52;6.72;;;12.70;99.90;;;;;;4991780;28;20042;-76
2023/07/06 03:33:13;;;;;;;10.93;5.85;;;12.70;99.90;;;;;;4990389;28;20047;-77
2023/07/06 03:35:59;;;;;;;13.43;6.15;;;12.70;99.90;;;;;;4990736;28;20520;-77
2023/07/06 03:38:49;;;;;;;13.25;6.55;;;12.60;99.90;;;;;;4991221;28;20054;-77
2023/07/06 03:41:38;;;;;;;12.10;5.28;;;12.70;99.90;;;;;;4989602;28;20093;-76
2023/07/06 03:44:24;;;;;;;10.57;5.80;;;12.60;99.90;;;;;;4990608;28;20060;-77
2023/07/06 03:47:10;;;;;;;11.93;6.10;;;12.60;99.90;;;;;;4989089;28;20054;-77
2023/07/06 03:49:57;;;;;;;12.30;5.85;;;12.60;99.90;;;;;;4990218;28;20113;-77
2023/07/06 03:52:44;;;;;;;10.40;5.63;;;12.60;99.90;;;;;;4989888;28;20076;-77
2023/07/06 03:55:30;;;;;;;11.52;5.68;;;12.60;99.90;;;;;;4990520;28;20053;-77
2023/07/06 03:58:21;;;;;;;13.20;5.28;;;12.60;99.90;;;;;;4990697;28;20100;-78
2023/07/06 04:01:07;;;;;;;15.10;5.85;;;12.60;99.90;;;;;;4990576;28;20060;-77
2023/07/06 04:03:55;;;;;;;8.60;5.57;;;12.60;99.90;;;;;;4990093;28;20502;-77
2023/07/06 04:06:42;;;;;;;14.45;5.82;;;12.70;99.90;;;;;;4990843;28;20168;-78
2023/07/06 04:09:28;;;;;;;9.43;5.50;;;12.70;99.90;;;;;;4990863;28;20100;-76
2023/07/06 04:12:15;;;;;;;11.23;5.53;;;12.70;99.90;;;;;;4990852;28;20089;-77
2023/07/06 04:15:01;;;;;;;11.48;5.45;;;12.80;99.90;;;;;;4989283;28;20068;-77
2023/07/06 04:17:48;;;;;;;9.32;5.40;;;12.80;99.90;;;;;;4990677;28;20062;-77
2023/07/06 04:20:34;;;;;;;11.35;5.13;;;12.90;99.90;;;;;;4990565;28;20109;-77
2023/07/06 04:23:20;;;;;;;11.50;6.55;;;12.90;99.90;;;;;;4989457;28;20051;-77
2023/07/06 04:26:07;;;;;;;9.80;5.85;;;13.00;99.90;;;;;;4990889;28;20047;-77
2023/07/06 04:28:53;;;;;;;18.70;5.90;;;13.00;99.90;;;;;;4975491;28;20061;-77
2023/07/06 04:31:39;;;;;;;9.95;5.60;;;13.00;99.90;;;;;;4989125;28;20105;-77
2023/07/06 04:34:27;;;;;;;11.45;6.28;;;13.00;99.90;;;;;;4990630;28;20051;-77
2023/07/06 04:37:13;;;;;;;13.18;5.63;;;13.00;99.90;;;;;;4988926;28;20499;-76
2023/07/06 04:42:31;;;;;;;13.82;5.85;;;13.00;99.90;;;;;;5008384;28;20387;-77
2023/07/06 04:45:18;;;;;;;12.60;6.03;;;13.00;99.90;;;;;;5010374;28;20054;-77
2023/07/06 04:48:06;;;;;;;15.20;7.40;;;13.00;99.90;;;;;;5010201;28;20054;-77
2023/07/06 04:50:53;;;;;;;13.60;6.78;;;13.00;99.90;;;;;;4992348;28;20042;-77
2023/07/06 04:53:43;;;;;;;12.50;6.10;;;13.10;99.90;;;;;;5010785;28;20111;-76
2023/07/06 04:56:30;;;;;;;14.18;6.85;;;13.20;99.90;;;;;;5010113;28;20057;-77
2023/07/06 04:59:16;;;;;;;16.08;7.88;;;13.20;99.90;;;;;;5008987;28;20456;-77
2023/07/06 05:02:03;;;;;;;12.88;7.15;;;13.30;99.90;;;;;;4991017;28;20054;-77
2023/07/06 05:04:51;;;;;;;14.10;7.10;;;13.50;99.90;;;;;;5008418;28;20054;-77
2023/07/06 05:07:38;;;;;;;12.05;7.22;;;13.50;99.90;;;;;;5010555;28;20058;-79
2023/07/06 05:10:26;;;;;;;15.30;8.77;;;13.60;99.90;;;;;;5010311;28;20502;-78
2023/07/06 05:13:12;;;;;;;19.55;7.05;;;13.70;99.90;;;;;;4995645;28;20058;-77
2023/07/06 05:15:58;;;;;;;15.60;8.00;;;13.80;99.90;;;;;;5010010;28;20053;-78
